Rickenbacker International Airport
KLCK : rendu visible

Aérodrome :











RETROUVEZ-NOUS SUR...

 
LOGIN :

S'inscrire | Disclaimer

   EN    FR    IT 

 









Légende :    VFR   VFR Marginal   IFR   IFR Intensif   IFR Très Intensif
Visi : 
Plafond : 
>= 8 km
>= 3000ft
5 à 8 km
1000 à 3000 ft
1500m à 5 km
500 à 1000 ft
800 à 1500m
200 à 500 ft
< 800m
< 200 ft
Symboles :   Orages  Brouillard  Fortes neiges  Fortes précipitations  Vent > 20 kt






- Altitude de l'aérodrome : 744 ft


KLCK - Rickenbacker International

DERNIER METAR :
  • 301255Z AUTO 34014G19KT 4SM UP BKN010 OVC029 02/01 A2960 RMK AO2 T00210013

METARs EXPIRÉS :
  • 301155Z AUTO 34010G20KT 7SM RA OVC012 03/02 A2962 RMK AO2 T00300018 10055 20030
  • 301055Z AUTO 35010KT 7SM -RA BKN035 BKN041 OVC050 05/03 A2963 RMK AO2 T00480033

TAF KLCK
Valide du 30 à 12h jusqu'au 01 à 12h UTC


301146Z 3012/0112 01012KT 4SM RA BR BKN025 OVC035
FM301300 36013KT 3SM RASN BR OVC012
TEMPO 3013/3016 1SM -SN OVC008
FM301800 33016G23KT 1SM -SN BR OVC007
FM010500 29012G20KT 3SM -SHSN BR OVC018
FIR KZID / Amérique du Nord



MET'MAP, la Météo Aéronautique d'un coup d'oeil ! - Copyright ORBIFLY Décembre 2007 - Disclaimer

ORBIFLY MET'MAP TEAM :

Programmation & Développement : Alexandra Zaïnal
Sur une idée originale de : Baudouin d'Aumeries
Assistance à la programmation : Marc-Olivier Méhu
Soutien technique & logistique : Manuel Goepfert

Contact : metmap@orbifly.com




SOURCES & CREDITS :

   NOAA       Earth
Advisory